sensor_id;sensor_type;location;lat;lon;timestamp;P1;durP1;ratioP1;P2;durP2;ratioP2
56860;SDS011;42744;51.094;3.490;2023-01-29T00:01:29;39.70;;;22.33;;
56860;SDS011;42744;51.094;3.490;2023-01-29T00:03:56;33.47;;;22.63;;
56860;SDS011;42744;51.094;3.490;2023-01-29T00:06:21;34.00;;;23.57;;
56860;SDS011;42744;51.094;3.490;2023-01-29T00:08:48;36.73;;;23.73;;
56860;SDS011;42744;51.094;3.490;2023-01-29T00:11:14;38.20;;;24.03;;
56860;SDS011;42744;51.094;3.490;2023-01-29T00:13:41;36.33;;;24.30;;
56860;SDS011;42744;51.094;3.490;2023-01-29T00:16:07;37.63;;;24.30;;
56860;SDS011;42744;51.094;3.490;2023-01-29T00:18:38;37.07;;;24.20;;
56860;SDS011;42744;51.094;3.490;2023-01-29T00:21:11;35.23;;;23.43;;
56860;SDS011;42744;51.094;3.490;2023-01-29T00:23:38;37.87;;;23.43;;
56860;SDS011;42744;51.094;3.490;2023-01-29T00:26:04;37.23;;;23.40;;
56860;SDS011;42744;51.094;3.490;2023-01-29T00:28:30;39.37;;;24.07;;
56860;SDS011;42744;51.094;3.490;2023-01-29T00:30:57;34.90;;;24.13;;
56860;SDS011;42744;51.094;3.490;2023-01-29T00:33:23;37.00;;;23.70;;
56860;SDS011;42744;51.094;3.490;2023-01-29T00:35:49;36.30;;;24.93;;
56860;SDS011;42744;51.094;3.490;2023-01-29T00:38:15;34.27;;;23.77;;
56860;SDS011;42744;51.094;3.490;2023-01-29T00:40:41;34.43;;;23.40;;
56860;SDS011;42744;51.094;3.490;2023-01-29T00:43:25;34.47;;;23.30;;
56860;SDS011;42744;51.094;3.490;2023-01-29T00:46:10;34.50;;;23.33;;
56860;SDS011;42744;51.094;3.490;2023-01-29T00:48:36;37.33;;;25.67;;
56860;SDS011;42744;51.094;3.490;2023-01-29T00:51:02;35.40;;;23.67;;
56860;SDS011;42744;51.094;3.490;2023-01-29T00:53:29;36.83;;;24.83;;
56860;SDS011;42744;51.094;3.490;2023-01-29T00:55:55;35.60;;;24.03;;
56860;SDS011;42744;51.094;3.490;2023-01-29T00:58:21;36.73;;;24.03;;
56860;SDS011;42744;51.094;3.490;2023-01-29T01:00:53;38.10;;;24.43;;
56860;SDS011;42744;51.094;3.490;2023-01-29T01:03:20;35.63;;;23.93;;
56860;SDS011;42744;51.094;3.490;2023-01-29T01:05:46;35.90;;;24.57;;
56860;SDS011;42744;51.094;3.490;2023-01-29T01:08:12;38.00;;;24.53;;
56860;SDS011;42744;51.094;3.490;2023-01-29T01:11:01;39.47;;;24.27;;
56860;SDS011;42744;51.094;3.490;2023-01-29T01:13:29;35.90;;;23.67;;
56860;SDS011;42744;51.094;3.490;2023-01-29T01:15:56;38.17;;;24.10;;
56860;SDS011;42744;51.094;3.490;2023-01-29T01:18:22;34.57;;;23.17;;
56860;SDS011;42744;51.094;3.490;2023-01-29T01:20:48;37.90;;;24.57;;
56860;SDS011;42744;51.094;3.490;2023-01-29T01:23:17;37.87;;;24.87;;
56860;SDS011;42744;51.094;3.490;2023-01-29T01:25:43;38.03;;;25.37;;
56860;SDS011;42744;51.094;3.490;2023-01-29T01:28:10;35.23;;;25.50;;
56860;SDS011;42744;51.094;3.490;2023-01-29T01:30:37;37.40;;;24.10;;
56860;SDS011;42744;51.094;3.490;2023-01-29T01:33:03;39.57;;;24.43;;
56860;SDS011;42744;51.094;3.490;2023-01-29T01:35:29;36.97;;;24.73;;
56860;SDS011;42744;51.094;3.490;2023-01-29T01:37:55;35.83;;;24.63;;
56860;SDS011;42744;51.094;3.490;2023-01-29T01:40:22;35.57;;;24.67;;
56860;SDS011;42744;51.094;3.490;2023-01-29T01:42:50;38.67;;;25.07;;
56860;SDS011;42744;51.094;3.490;2023-01-29T01:45:31;34.90;;;24.27;;
56860;SDS011;42744;51.094;3.490;2023-01-29T01:48:00;36.50;;;25.13;;
56860;SDS011;42744;51.094;3.490;2023-01-29T01:51:01;38.17;;;24.57;;
56860;SDS011;42744;51.094;3.490;2023-01-29T01:53:38;33.07;;;23.63;;
56860;SDS011;42744;51.094;3.490;2023-01-29T01:56:08;39.37;;;26.27;;
56860;SDS011;42744;51.094;3.490;2023-01-29T01:58:40;37.10;;;25.80;;
56860;SDS011;42744;51.094;3.490;2023-01-29T02:01:09;36.00;;;23.43;;
56860;SDS011;42744;51.094;3.490;2023-01-29T02:03:45;37.57;;;25.73;;
56860;SDS011;42744;51.094;3.490;2023-01-29T02:06:35;38.50;;;25.47;;
56860;SDS011;42744;51.094;3.490;2023-01-29T02:09:25;36.60;;;24.77;;
56860;SDS011;42744;51.094;3.490;2023-01-29T02:12:03;40.67;;;26.37;;
56860;SDS011;42744;51.094;3.490;2023-01-29T02:14:31;38.17;;;26.13;;
56860;SDS011;42744;51.094;3.490;2023-01-29T02:17:02;43.67;;;27.07;;
56860;SDS011;42744;51.094;3.490;2023-01-29T02:19:36;42.13;;;27.67;;
56860;SDS011;42744;51.094;3.490;2023-01-29T02:22:50;41.37;;;27.37;;
56860;SDS011;42744;51.094;3.490;2023-01-29T02:33:32;42.63;;;27.97;;
56860;SDS011;42744;51.094;3.490;2023-01-29T02:39:06;41.13;;;27.57;;
56860;SDS011;42744;51.094;3.490;2023-01-29T02:44:51;39.80;;;26.57;;
56860;SDS011;42744;51.094;3.490;2023-01-29T02:47:21;40.40;;;27.20;;
56860;SDS011;42744;51.094;3.490;2023-01-29T02:52:30;39.83;;;27.20;;
56860;SDS011;42744;51.094;3.490;2023-01-29T02:55:11;43.10;;;26.90;;
56860;SDS011;42744;51.094;3.490;2023-01-29T02:57:43;40.83;;;27.17;;
56860;SDS011;42744;51.094;3.490;2023-01-29T03:05:36;40.97;;;27.20;;
56860;SDS011;42744;51.094;3.490;2023-01-29T03:08:10;41.87;;;26.93;;
56860;SDS011;42744;51.094;3.490;2023-01-29T03:10:46;42.77;;;28.67;;
56860;SDS011;42744;51.094;3.490;2023-01-29T03:14:07;39.03;;;26.97;;
56860;SDS011;42744;51.094;3.490;2023-01-29T03:16:24;43.00;;;26.73;;
56860;SDS011;42744;51.094;3.490;2023-01-29T03:19:00;40.17;;;27.07;;
56860;SDS011;42744;51.094;3.490;2023-01-29T03:21:50;39.60;;;26.90;;
56860;SDS011;42744;51.094;3.490;2023-01-29T03:27:21;37.80;;;25.33;;
56860;SDS011;42744;51.094;3.490;2023-01-29T03:30:09;41.43;;;28.07;;
56860;SDS011;42744;51.094;3.490;2023-01-29T03:32:58;39.13;;;27.33;;
56860;SDS011;42744;51.094;3.490;2023-01-29T03:35:29;42.33;;;26.60;;
56860;SDS011;42744;51.094;3.490;2023-01-29T03:38:02;42.83;;;28.00;;
56860;SDS011;42744;51.094;3.490;2023-01-29T03:40:34;40.30;;;27.13;;
56860;SDS011;42744;51.094;3.490;2023-01-29T03:43:09;44.87;;;26.90;;
56860;SDS011;42744;51.094;3.490;2023-01-29T03:48:10;39.20;;;26.63;;
56860;SDS011;42744;51.094;3.490;2023-01-29T03:51:24;44.50;;;27.43;;
56860;SDS011;42744;51.094;3.490;2023-01-29T04:00:15;39.37;;;26.33;;
56860;SDS011;42744;51.094;3.490;2023-01-29T04:05:28;38.27;;;26.50;;
56860;SDS011;42744;51.094;3.490;2023-01-29T04:08:04;39.27;;;26.33;;
56860;SDS011;42744;51.094;3.490;2023-01-29T04:10:34;39.47;;;25.97;;
56860;SDS011;42744;51.094;3.490;2023-01-29T04:13:05;38.10;;;25.70;;
56860;SDS011;42744;51.094;3.490;2023-01-29T04:15:37;40.50;;;26.00;;
56860;SDS011;42744;51.094;3.490;2023-01-29T04:18:11;38.17;;;26.23;;
56860;SDS011;42744;51.094;3.490;2023-01-29T04:20:38;36.30;;;26.17;;
56860;SDS011;42744;51.094;3.490;2023-01-29T04:23:05;39.30;;;26.20;;
56860;SDS011;42744;51.094;3.490;2023-01-29T04:25:45;37.63;;;26.13;;
56860;SDS011;42744;51.094;3.490;2023-01-29T04:28:19;38.33;;;25.77;;
56860;SDS011;42744;51.094;3.490;2023-01-29T04:30:53;37.03;;;26.10;;
56860;SDS011;42744;51.094;3.490;2023-01-29T04:33:51;39.20;;;25.73;;
56860;SDS011;42744;51.094;3.490;2023-01-29T04:39:07;36.60;;;25.23;;
56860;SDS011;42744;51.094;3.490;2023-01-29T04:44:25;37.37;;;26.13;;
56860;SDS011;42744;51.094;3.490;2023-01-29T04:50:43;39.90;;;25.70;;
56860;SDS011;42744;51.094;3.490;2023-01-29T04:53:06;33.37;;;24.13;;
56860;SDS011;42744;51.094;3.490;2023-01-29T04:58:29;37.17;;;24.57;;
56860;SDS011;42744;51.094;3.490;2023-01-29T05:01:03;37.20;;;24.97;;
56860;SDS011;42744;51.094;3.490;2023-01-29T05:03:33;38.27;;;24.90;;
56860;SDS011;42744;51.094;3.490;2023-01-29T05:06:02;37.83;;;24.83;;
56860;SDS011;42744;51.094;3.490;2023-01-29T05:08:29;36.77;;;25.73;;
56860;SDS011;42744;51.094;3.490;2023-01-29T05:10:58;35.73;;;24.37;;
56860;SDS011;42744;51.094;3.490;2023-01-29T05:13:24;35.77;;;24.40;;
56860;SDS011;42744;51.094;3.490;2023-01-29T05:18:32;34.00;;;24.00;;
56860;SDS011;42744;51.094;3.490;2023-01-29T05:21:00;33.00;;;22.73;;
56860;SDS011;42744;51.094;3.490;2023-01-29T05:23:30;38.50;;;25.53;;
56860;SDS011;42744;51.094;3.490;2023-01-29T05:25:56;37.40;;;25.93;;
56860;SDS011;42744;51.094;3.490;2023-01-29T05:28:22;36.73;;;24.83;;
56860;SDS011;42744;51.094;3.490;2023-01-29T05:30:49;36.90;;;25.27;;
56860;SDS011;42744;51.094;3.490;2023-01-29T05:33:17;37.60;;;24.80;;
56860;SDS011;42744;51.094;3.490;2023-01-29T05:35:48;38.23;;;24.80;;
56860;SDS011;42744;51.094;3.490;2023-01-29T05:38:15;40.70;;;25.53;;
56860;SDS011;42744;51.094;3.490;2023-01-29T05:40:42;33.53;;;23.97;;
56860;SDS011;42744;51.094;3.490;2023-01-29T05:43:15;36.53;;;24.00;;
56860;SDS011;42744;51.094;3.490;2023-01-29T05:45:50;32.67;;;22.33;;
56860;SDS011;42744;51.094;3.490;2023-01-29T05:48:20;33.23;;;22.17;;
56860;SDS011;42744;51.094;3.490;2023-01-29T05:50:47;38.97;;;23.50;;
56860;SDS011;42744;51.094;3.490;2023-01-29T05:53:13;39.73;;;24.77;;
56860;SDS011;42744;51.094;3.490;2023-01-29T05:55:42;33.27;;;22.73;;
56860;SDS011;42744;51.094;3.490;2023-01-29T05:58:12;35.57;;;22.50;;
56860;SDS011;42744;51.094;3.490;2023-01-29T06:00:39;36.43;;;23.23;;
56860;SDS011;42744;51.094;3.490;2023-01-29T06:03:05;38.63;;;23.87;;
56860;SDS011;42744;51.094;3.490;2023-01-29T06:05:31;35.27;;;22.90;;
56860;SDS011;42744;51.094;3.490;2023-01-29T06:07:57;33.07;;;22.77;;
56860;SDS011;42744;51.094;3.490;2023-01-29T06:10:24;30.23;;;21.30;;
56860;SDS011;42744;51.094;3.490;2023-01-29T06:12:49;35.03;;;22.87;;
56860;SDS011;42744;51.094;3.490;2023-01-29T06:15:15;38.50;;;23.77;;
56860;SDS011;42744;51.094;3.490;2023-01-29T06:17:44;36.10;;;24.70;;
56860;SDS011;42744;51.094;3.490;2023-01-29T06:20:12;39.37;;;24.10;;
56860;SDS011;42744;51.094;3.490;2023-01-29T06:22:38;39.00;;;23.90;;
56860;SDS011;42744;51.094;3.490;2023-01-29T06:25:05;36.13;;;24.53;;
56860;SDS011;42744;51.094;3.490;2023-01-29T06:27:31;35.23;;;24.03;;
56860;SDS011;42744;51.094;3.490;2023-01-29T06:29:57;36.67;;;23.73;;
56860;SDS011;42744;51.094;3.490;2023-01-29T06:32:23;37.17;;;24.70;;
56860;SDS011;42744;51.094;3.490;2023-01-29T06:34:49;37.07;;;25.60;;
56860;SDS011;42744;51.094;3.490;2023-01-29T06:37:17;36.60;;;24.27;;
56860;SDS011;42744;51.094;3.490;2023-01-29T06:39:43;39.83;;;25.13;;
56860;SDS011;42744;51.094;3.490;2023-01-29T06:42:09;40.40;;;25.37;;
56860;SDS011;42744;51.094;3.490;2023-01-29T06:44:35;35.87;;;24.40;;
56860;SDS011;42744;51.094;3.490;2023-01-29T06:47:01;39.93;;;25.93;;
56860;SDS011;42744;51.094;3.490;2023-01-29T06:49:27;38.23;;;24.97;;
56860;SDS011;42744;51.094;3.490;2023-01-29T06:51:53;39.40;;;25.93;;
56860;SDS011;42744;51.094;3.490;2023-01-29T06:54:19;36.67;;;24.60;;
56860;SDS011;42744;51.094;3.490;2023-01-29T06:56:45;34.47;;;24.23;;
56860;SDS011;42744;51.094;3.490;2023-01-29T06:59:11;40.10;;;24.87;;
56860;SDS011;42744;51.094;3.490;2023-01-29T07:01:38;38.57;;;23.93;;
56860;SDS011;42744;51.094;3.490;2023-01-29T07:04:08;39.97;;;25.70;;
56860;SDS011;42744;51.094;3.490;2023-01-29T07:06:36;43.27;;;25.57;;
56860;SDS011;42744;51.094;3.490;2023-01-29T07:09:02;39.60;;;24.20;;
56860;SDS011;42744;51.094;3.490;2023-01-29T07:11:28;36.87;;;24.53;;
56860;SDS011;42744;51.094;3.490;2023-01-29T07:13:54;38.23;;;24.57;;
56860;SDS011;42744;51.094;3.490;2023-01-29T07:16:21;36.80;;;24.73;;
56860;SDS011;42744;51.094;3.490;2023-01-29T07:18:47;40.43;;;26.17;;
56860;SDS011;42744;51.094;3.490;2023-01-29T07:21:16;37.83;;;25.47;;
56860;SDS011;42744;51.094;3.490;2023-01-29T07:23:46;39.23;;;25.73;;
56860;SDS011;42744;51.094;3.490;2023-01-29T07:26:15;37.43;;;25.00;;
56860;SDS011;42744;51.094;3.490;2023-01-29T07:28:44;38.30;;;25.27;;
56860;SDS011;42744;51.094;3.490;2023-01-29T07:31:16;35.73;;;24.27;;
56860;SDS011;42744;51.094;3.490;2023-01-29T07:33:42;37.10;;;24.33;;
56860;SDS011;42744;51.094;3.490;2023-01-29T07:36:09;38.23;;;24.63;;
56860;SDS011;42744;51.094;3.490;2023-01-29T07:38:36;36.40;;;23.97;;
56860;SDS011;42744;51.094;3.490;2023-01-29T07:41:02;37.40;;;23.83;;
56860;SDS011;42744;51.094;3.490;2023-01-29T07:43:28;36.43;;;23.43;;
56860;SDS011;42744;51.094;3.490;2023-01-29T07:45:55;37.73;;;24.10;;
56860;SDS011;42744;51.094;3.490;2023-01-29T07:48:25;35.03;;;22.73;;
56860;SDS011;42744;51.094;3.490;2023-01-29T07:50:54;33.97;;;23.10;;
56860;SDS011;42744;51.094;3.490;2023-01-29T07:53:21;38.43;;;23.63;;
56860;SDS011;42744;51.094;3.490;2023-01-29T07:55:47;33.57;;;23.17;;
56860;SDS011;42744;51.094;3.490;2023-01-29T07:58:13;35.80;;;24.73;;
56860;SDS011;42744;51.094;3.490;2023-01-29T08:00:39;36.37;;;23.53;;
56860;SDS011;42744;51.094;3.490;2023-01-29T08:03:06;36.40;;;24.23;;
56860;SDS011;42744;51.094;3.490;2023-01-29T08:05:37;37.60;;;25.10;;
56860;SDS011;42744;51.094;3.490;2023-01-29T08:08:03;42.27;;;25.00;;
56860;SDS011;42744;51.094;3.490;2023-01-29T08:10:30;37.77;;;25.90;;
56860;SDS011;42744;51.094;3.490;2023-01-29T08:12:57;36.60;;;25.63;;
56860;SDS011;42744;51.094;3.490;2023-01-29T08:15:24;35.03;;;24.83;;
56860;SDS011;42744;51.094;3.490;2023-01-29T08:17:51;39.00;;;25.33;;
56860;SDS011;42744;51.094;3.490;2023-01-29T08:20:18;35.47;;;23.33;;
56860;SDS011;42744;51.094;3.490;2023-01-29T08:22:45;35.40;;;23.80;;
56860;SDS011;42744;51.094;3.490;2023-01-29T08:25:11;34.87;;;23.83;;
56860;SDS011;42744;51.094;3.490;2023-01-29T08:27:38;35.67;;;22.70;;
56860;SDS011;42744;51.094;3.490;2023-01-29T08:30:05;33.37;;;23.57;;
56860;SDS011;42744;51.094;3.490;2023-01-29T08:32:32;33.20;;;21.93;;
56860;SDS011;42744;51.094;3.490;2023-01-29T08:35:00;32.87;;;21.47;;
56860;SDS011;42744;51.094;3.490;2023-01-29T08:37:26;30.57;;;21.30;;
56860;SDS011;42744;51.094;3.490;2023-01-29T08:39:52;29.30;;;21.17;;
56860;SDS011;42744;51.094;3.490;2023-01-29T08:42:18;32.50;;;21.50;;
56860;SDS011;42744;51.094;3.490;2023-01-29T08:44:44;33.83;;;21.33;;
56860;SDS011;42744;51.094;3.490;2023-01-29T08:47:10;36.00;;;22.43;;
56860;SDS011;42744;51.094;3.490;2023-01-29T08:49:36;31.13;;;21.47;;
56860;SDS011;42744;51.094;3.490;2023-01-29T08:52:02;31.30;;;21.63;;
56860;SDS011;42744;51.094;3.490;2023-01-29T08:54:29;30.53;;;21.50;;
56860;SDS011;42744;51.094;3.490;2023-01-29T08:56:55;32.97;;;20.97;;
56860;SDS011;42744;51.094;3.490;2023-01-29T08:59:21;31.10;;;20.97;;
56860;SDS011;42744;51.094;3.490;2023-01-29T09:01:47;32.43;;;21.93;;
56860;SDS011;42744;51.094;3.490;2023-01-29T09:04:13;33.20;;;22.03;;
56860;SDS011;42744;51.094;3.490;2023-01-29T09:06:39;36.67;;;24.53;;
56860;SDS011;42744;51.094;3.490;2023-01-29T09:09:05;30.53;;;22.00;;
56860;SDS011;42744;51.094;3.490;2023-01-29T09:11:31;33.23;;;22.00;;
56860;SDS011;42744;51.094;3.490;2023-01-29T09:13:57;34.20;;;23.27;;
56860;SDS011;42744;51.094;3.490;2023-01-29T09:16:23;33.40;;;22.87;;
56860;SDS011;42744;51.094;3.490;2023-01-29T09:18:49;34.33;;;22.70;;
56860;SDS011;42744;51.094;3.490;2023-01-29T09:21:16;33.80;;;22.07;;
56860;SDS011;42744;51.094;3.490;2023-01-29T09:23:43;30.43;;;21.77;;
56860;SDS011;42744;51.094;3.490;2023-01-29T09:26:08;32.30;;;20.90;;
56860;SDS011;42744;51.094;3.490;2023-01-29T09:28:34;33.73;;;22.30;;
56860;SDS011;42744;51.094;3.490;2023-01-29T09:31:01;29.97;;;21.73;;
56860;SDS011;42744;51.094;3.490;2023-01-29T09:33:27;31.43;;;20.67;;
56860;SDS011;42744;51.094;3.490;2023-01-29T09:35:53;30.90;;;20.67;;
56860;SDS011;42744;51.094;3.490;2023-01-29T09:38:19;30.73;;;21.10;;
56860;SDS011;42744;51.094;3.490;2023-01-29T09:43:42;32.17;;;20.67;;
56860;SDS011;42744;51.094;3.490;2023-01-29T09:46:14;37.53;;;22.27;;
56860;SDS011;42744;51.094;3.490;2023-01-29T09:48:45;30.43;;;21.30;;
56860;SDS011;42744;51.094;3.490;2023-01-29T09:52:00;34.33;;;22.17;;
56860;SDS011;42744;51.094;3.490;2023-01-29T09:56:47;33.87;;;22.33;;
56860;SDS011;42744;51.094;3.490;2023-01-29T09:59:17;35.67;;;23.07;;
56860;SDS011;42744;51.094;3.490;2023-01-29T10:04:50;33.37;;;21.93;;
56860;SDS011;42744;51.094;3.490;2023-01-29T10:08:01;30.03;;;21.10;;
56860;SDS011;42744;51.094;3.490;2023-01-29T10:16:38;32.03;;;21.30;;
56860;SDS011;42744;51.094;3.490;2023-01-29T10:22:29;29.53;;;21.50;;
56860;SDS011;42744;51.094;3.490;2023-01-29T10:25:18;31.50;;;21.53;;
56860;SDS011;42744;51.094;3.490;2023-01-29T10:27:50;31.43;;;22.03;;
56860;SDS011;42744;51.094;3.490;2023-01-29T10:32:47;33.03;;;21.67;;
56860;SDS011;42744;51.094;3.490;2023-01-29T10:35:23;31.63;;;22.07;;
56860;SDS011;42744;51.094;3.490;2023-01-29T10:38:15;30.13;;;21.77;;
56860;SDS011;42744;51.094;3.490;2023-01-29T10:43:35;29.03;;;20.30;;
56860;SDS011;42744;51.094;3.490;2023-01-29T10:54:40;30.83;;;21.10;;
56860;SDS011;42744;51.094;3.490;2023-01-29T10:57:22;32.67;;;21.50;;
56860;SDS011;42744;51.094;3.490;2023-01-29T11:00:17;32.87;;;21.47;;
56860;SDS011;42744;51.094;3.490;2023-01-29T11:02:49;30.03;;;20.97;;
56860;SDS011;42744;51.094;3.490;2023-01-29T11:05:29;26.43;;;19.00;;
56860;SDS011;42744;51.094;3.490;2023-01-29T11:08:07;29.83;;;20.47;;
56860;SDS011;42744;51.094;3.490;2023-01-29T11:10:40;29.50;;;20.57;;
56860;SDS011;42744;51.094;3.490;2023-01-29T11:13:22;27.00;;;19.23;;
56860;SDS011;42744;51.094;3.490;2023-01-29T11:15:54;29.20;;;19.87;;
56860;SDS011;42744;51.094;3.490;2023-01-29T11:18:20;29.87;;;20.27;;
56860;SDS011;42744;51.094;3.490;2023-01-29T11:20:45;25.63;;;18.93;;
56860;SDS011;42744;51.094;3.490;2023-01-29T11:23:27;24.73;;;17.17;;
56860;SDS011;42744;51.094;3.490;2023-01-29T11:25:57;25.27;;;18.00;;
56860;SDS011;42744;51.094;3.490;2023-01-29T11:28:38;23.73;;;17.47;;
56860;SDS011;42744;51.094;3.490;2023-01-29T11:31:19;23.13;;;17.67;;
56860;SDS011;42744;51.094;3.490;2023-01-29T11:34:21;24.20;;;18.00;;
56860;SDS011;42744;51.094;3.490;2023-01-29T11:36:56;24.77;;;16.67;;
56860;SDS011;42744;51.094;3.490;2023-01-29T11:39:44;21.47;;;16.00;;
56860;SDS011;42744;51.094;3.490;2023-01-29T11:42:20;23.13;;;16.03;;
56860;SDS011;42744;51.094;3.490;2023-01-29T11:44:47;22.80;;;15.80;;
56860;SDS011;42744;51.094;3.490;2023-01-29T11:49:44;20.80;;;16.50;;
56860;SDS011;42744;51.094;3.490;2023-01-29T11:52:16;22.53;;;16.60;;
56860;SDS011;42744;51.094;3.490;2023-01-29T11:54:46;27.07;;;16.67;;
56860;SDS011;42744;51.094;3.490;2023-01-29T11:57:25;22.20;;;16.10;;
56860;SDS011;42744;51.094;3.490;2023-01-29T12:00:01;22.13;;;15.93;;
56860;SDS011;42744;51.094;3.490;2023-01-29T12:02:37;23.40;;;15.70;;
56860;SDS011;42744;51.094;3.490;2023-01-29T12:05:18;22.37;;;16.23;;
56860;SDS011;42744;51.094;3.490;2023-01-29T12:07:49;25.40;;;16.87;;
56860;SDS011;42744;51.094;3.490;2023-01-29T12:10:37;23.47;;;16.10;;
56860;SDS011;42744;51.094;3.490;2023-01-29T12:15:38;22.63;;;16.73;;
56860;SDS011;42744;51.094;3.490;2023-01-29T12:20:49;22.17;;;16.67;;
56860;SDS011;42744;51.094;3.490;2023-01-29T12:23:22;22.80;;;15.83;;
56860;SDS011;42744;51.094;3.490;2023-01-29T12:26:14;23.03;;;17.00;;
56860;SDS011;42744;51.094;3.490;2023-01-29T12:28:47;24.37;;;17.93;;
56860;SDS011;42744;51.094;3.490;2023-01-29T12:36:51;23.23;;;16.60;;
56860;SDS011;42744;51.094;3.490;2023-01-29T12:39:30;24.13;;;16.53;;
56860;SDS011;42744;51.094;3.490;2023-01-29T12:42:01;25.60;;;18.07;;
56860;SDS011;42744;51.094;3.490;2023-01-29T12:47:34;24.63;;;16.67;;
56860;SDS011;42744;51.094;3.490;2023-01-29T12:50:20;22.17;;;16.20;;
56860;SDS011;42744;51.094;3.490;2023-01-29T12:52:57;21.43;;;16.20;;
56860;SDS011;42744;51.094;3.490;2023-01-29T12:55:49;20.87;;;16.37;;
56860;SDS011;42744;51.094;3.490;2023-01-29T12:58:21;27.40;;;18.53;;
56860;SDS011;42744;51.094;3.490;2023-01-29T13:01:07;23.17;;;16.97;;
56860;SDS011;42744;51.094;3.490;2023-01-29T13:06:29;21.33;;;16.27;;
56860;SDS011;42744;51.094;3.490;2023-01-29T13:09:11;20.83;;;15.83;;
56860;SDS011;42744;51.094;3.490;2023-01-29T13:11:46;21.20;;;15.33;;
56860;SDS011;42744;51.094;3.490;2023-01-29T13:14:22;19.20;;;14.43;;
56860;SDS011;42744;51.094;3.490;2023-01-29T13:20:27;21.03;;;15.30;;
56860;SDS011;42744;51.094;3.490;2023-01-29T13:22:57;22.97;;;15.63;;
56860;SDS011;42744;51.094;3.490;2023-01-29T13:25:52;18.87;;;14.50;;
56860;SDS011;42744;51.094;3.490;2023-01-29T13:28:19;18.63;;;14.57;;
56860;SDS011;42744;51.094;3.490;2023-01-29T13:31:08;19.37;;;14.27;;
56860;SDS011;42744;51.094;3.490;2023-01-29T13:33:53;19.57;;;14.23;;
56860;SDS011;42744;51.094;3.490;2023-01-29T13:36:26;19.30;;;13.73;;
56860;SDS011;42744;51.094;3.490;2023-01-29T13:38:59;18.13;;;13.23;;
56860;SDS011;42744;51.094;3.490;2023-01-29T13:41:40;21.07;;;14.80;;
56860;SDS011;42744;51.094;3.490;2023-01-29T13:44:15;20.77;;;14.13;;
56860;SDS011;42744;51.094;3.490;2023-01-29T13:46:52;20.00;;;15.33;;
56860;SDS011;42744;51.094;3.490;2023-01-29T13:52:23;16.17;;;13.00;;
56860;SDS011;42744;51.094;3.490;2023-01-29T13:54:56;17.97;;;13.37;;
56860;SDS011;42744;51.094;3.490;2023-01-29T13:57:33;20.07;;;13.10;;
56860;SDS011;42744;51.094;3.490;2023-01-29T14:02:49;17.13;;;13.03;;
56860;SDS011;42744;51.094;3.490;2023-01-29T14:10:33;20.83;;;14.63;;
56860;SDS011;42744;51.094;3.490;2023-01-29T14:18:22;19.83;;;14.50;;
56860;SDS011;42744;51.094;3.490;2023-01-29T14:21:02;21.37;;;14.40;;
56860;SDS011;42744;51.094;3.490;2023-01-29T14:26:41;22.40;;;14.83;;
56860;SDS011;42744;51.094;3.490;2023-01-29T14:29:17;21.53;;;14.33;;
56860;SDS011;42744;51.094;3.490;2023-01-29T14:31:48;17.97;;;14.30;;
56860;SDS011;42744;51.094;3.490;2023-01-29T14:34:27;22.17;;;15.80;;
56860;SDS011;42744;51.094;3.490;2023-01-29T14:39:47;20.00;;;15.07;;
56860;SDS011;42744;51.094;3.490;2023-01-29T14:42:23;24.87;;;15.37;;
56860;SDS011;42744;51.094;3.490;2023-01-29T14:47:59;20.87;;;15.07;;
56860;SDS011;42744;51.094;3.490;2023-01-29T14:56:13;21.47;;;15.03;;
56860;SDS011;42744;51.094;3.490;2023-01-29T14:58:45;18.30;;;13.93;;
56860;SDS011;42744;51.094;3.490;2023-01-29T15:01:22;22.27;;;15.23;;
56860;SDS011;42744;51.094;3.490;2023-01-29T15:03:59;21.13;;;15.70;;
56860;SDS011;42744;51.094;3.490;2023-01-29T15:06:44;20.13;;;15.43;;
56860;SDS011;42744;51.094;3.490;2023-01-29T15:09:15;20.43;;;14.90;;
56860;SDS011;42744;51.094;3.490;2023-01-29T15:11:52;23.20;;;15.33;;
56860;SDS011;42744;51.094;3.490;2023-01-29T15:14:31;21.57;;;15.33;;
56860;SDS011;42744;51.094;3.490;2023-01-29T15:19:51;20.17;;;14.73;;
56860;SDS011;42744;51.094;3.490;2023-01-29T15:22:18;24.40;;;16.03;;
56860;SDS011;42744;51.094;3.490;2023-01-29T15:24:46;23.80;;;15.87;;
56860;SDS011;42744;51.094;3.490;2023-01-29T15:27:26;22.20;;;16.00;;
56860;SDS011;42744;51.094;3.490;2023-01-29T15:29:55;23.03;;;15.20;;
56860;SDS011;42744;51.094;3.490;2023-01-29T15:32:25;22.57;;;15.87;;
56860;SDS011;42744;51.094;3.490;2023-01-29T15:34:56;23.40;;;15.70;;
56860;SDS011;42744;51.094;3.490;2023-01-29T15:37:27;21.27;;;14.90;;
56860;SDS011;42744;51.094;3.490;2023-01-29T15:39:56;21.40;;;14.70;;
56860;SDS011;42744;51.094;3.490;2023-01-29T15:42:25;29.40;;;17.17;;
56860;SDS011;42744;51.094;3.490;2023-01-29T15:44:52;25.00;;;16.07;;
56860;SDS011;42744;51.094;3.490;2023-01-29T15:47:23;21.93;;;15.53;;
56860;SDS011;42744;51.094;3.490;2023-01-29T15:49:55;24.23;;;16.10;;
56860;SDS011;42744;51.094;3.490;2023-01-29T15:52:25;23.63;;;15.43;;
56860;SDS011;42744;51.094;3.490;2023-01-29T15:54:54;20.67;;;16.03;;
56860;SDS011;42744;51.094;3.490;2023-01-29T15:57:23;23.33;;;15.53;;
56860;SDS011;42744;51.094;3.490;2023-01-29T15:59:52;22.60;;;16.30;;
56860;SDS011;42744;51.094;3.490;2023-01-29T16:04:59;23.53;;;16.73;;
56860;SDS011;42744;51.094;3.490;2023-01-29T16:07:26;22.70;;;16.43;;
56860;SDS011;42744;51.094;3.490;2023-01-29T16:09:53;24.60;;;16.40;;
56860;SDS011;42744;51.094;3.490;2023-01-29T16:12:20;22.57;;;16.17;;
56860;SDS011;42744;51.094;3.490;2023-01-29T16:14:47;23.93;;;16.20;;
56860;SDS011;42744;51.094;3.490;2023-01-29T16:17:25;27.97;;;18.40;;
56860;SDS011;42744;51.094;3.490;2023-01-29T16:20:00;26.00;;;17.20;;
56860;SDS011;42744;51.094;3.490;2023-01-29T16:22:33;23.43;;;16.70;;
56860;SDS011;42744;51.094;3.490;2023-01-29T16:25:04;25.63;;;17.30;;
56860;SDS011;42744;51.094;3.490;2023-01-29T16:27:35;25.33;;;17.27;;
56860;SDS011;42744;51.094;3.490;2023-01-29T16:30:03;24.23;;;16.73;;
56860;SDS011;42744;51.094;3.490;2023-01-29T16:32:30;29.57;;;18.20;;
56860;SDS011;42744;51.094;3.490;2023-01-29T16:34:56;29.77;;;19.20;;
56860;SDS011;42744;51.094;3.490;2023-01-29T16:37:28;25.63;;;18.23;;
56860;SDS011;42744;51.094;3.490;2023-01-29T16:39:56;26.33;;;18.53;;
56860;SDS011;42744;51.094;3.490;2023-01-29T16:42:24;28.73;;;19.80;;
56860;SDS011;42744;51.094;3.490;2023-01-29T16:53:11;30.80;;;21.20;;
56860;SDS011;42744;51.094;3.490;2023-01-29T16:55:46;29.63;;;20.30;;
56860;SDS011;42744;51.094;3.490;2023-01-29T16:58:15;28.03;;;18.63;;
56860;SDS011;42744;51.094;3.490;2023-01-29T17:00:51;31.53;;;20.10;;
56860;SDS011;42744;51.094;3.490;2023-01-29T17:03:22;29.87;;;20.20;;
56860;SDS011;42744;51.094;3.490;2023-01-29T17:05:50;29.40;;;19.33;;
56860;SDS011;42744;51.094;3.490;2023-01-29T17:08:20;27.90;;;19.33;;
56860;SDS011;42744;51.094;3.490;2023-01-29T17:10:50;29.00;;;19.43;;
56860;SDS011;42744;51.094;3.490;2023-01-29T17:13:17;26.80;;;19.80;;
56860;SDS011;42744;51.094;3.490;2023-01-29T17:16:01;28.83;;;18.73;;
56860;SDS011;42744;51.094;3.490;2023-01-29T17:18:39;27.63;;;18.43;;